createdAt,value
2018-08-07T00:00:59.564Z,26.04
2018-08-07T00:03:27.470Z,25.95
2018-08-07T00:05:55.575Z,25.88
2018-08-07T00:08:23.197Z,25.86
2018-08-07T00:10:50.833Z,25.92
2018-08-07T00:13:19.273Z,25.93
2018-08-07T00:15:46.980Z,25.91
2018-08-07T00:18:14.841Z,25.85
2018-08-07T00:20:42.994Z,25.78
2018-08-07T00:23:10.651Z,25.76
2018-08-07T00:25:38.341Z,25.75
2018-08-07T00:28:05.985Z,25.78
2018-08-07T00:30:33.626Z,25.80
2018-08-07T00:33:01.322Z,25.72
2018-08-07T00:35:28.970Z,25.70
2018-08-07T00:37:56.748Z,25.68
2018-08-07T00:40:24.989Z,25.74
2018-08-07T00:42:52.892Z,25.76
2018-08-07T00:45:21.036Z,25.75
2018-08-07T00:47:49.257Z,25.67
2018-08-07T00:50:19.037Z,25.70
2018-08-07T00:52:47.548Z,25.67
2018-08-07T00:55:16.010Z,25.64
2018-08-07T00:57:43.701Z,25.65
2018-08-07T01:00:12.470Z,25.65
2018-08-07T01:02:40.349Z,25.66
2018-08-07T01:05:11.480Z,25.55
2018-08-07T01:07:39.365Z,25.49
2018-08-07T01:10:09.026Z,25.44
2018-08-07T01:12:37.394Z,25.40
2018-08-07T01:15:07.145Z,25.34
2018-08-07T01:17:34.866Z,25.27
2018-08-07T01:20:02.521Z,25.19
2018-08-07T01:22:30.456Z,25.12
2018-08-07T01:24:58.111Z,25.03
2018-08-07T01:27:25.998Z,24.97
2018-08-07T01:29:53.981Z,24.97
2018-08-07T01:32:21.672Z,25.08
2018-08-07T01:34:49.306Z,25.09
2018-08-07T01:37:16.939Z,25.11
2018-08-07T01:39:44.589Z,25.15
2018-08-07T01:42:12.253Z,25.10
2018-08-07T01:44:39.961Z,25.05
2018-08-07T01:47:07.621Z,25.06
2018-08-07T01:49:35.326Z,24.98
2018-08-07T01:52:03.291Z,24.89
2018-08-07T01:54:31.485Z,24.76
2018-08-07T01:56:59.161Z,24.65
2018-08-07T01:59:26.809Z,24.65
2018-08-07T02:01:54.477Z,24.68
2018-08-07T02:04:22.422Z,24.76
2018-08-07T02:06:50.430Z,24.84
2018-08-07T02:09:18.095Z,24.82
2018-08-07T02:11:46.024Z,24.81
2018-08-07T02:14:13.940Z,24.77
2018-08-07T02:16:41.788Z,24.67
2018-08-07T02:19:09.413Z,24.59
2018-08-07T02:21:37.027Z,24.57
2018-08-07T02:24:04.968Z,24.48
2018-08-07T02:26:33.027Z,24.41
2018-08-07T02:29:01.117Z,24.51
2018-08-07T02:31:28.708Z,24.44
2018-08-07T02:33:56.595Z,24.46
2018-08-07T02:36:24.257Z,24.40
2018-08-07T02:38:51.889Z,24.29
2018-08-07T02:41:19.521Z,24.19
2018-08-07T02:43:47.480Z,24.31
2018-08-07T02:46:15.342Z,24.33
2018-08-07T02:48:42.993Z,24.20
2018-08-07T02:51:10.677Z,24.15
2018-08-07T02:53:38.385Z,24.17
2018-08-07T02:56:06.237Z,24.24
2018-08-07T02:58:34.218Z,24.31
2018-08-07T03:01:02.146Z,24.21
2018-08-07T03:03:30.740Z,24.04
2018-08-07T03:05:58.401Z,24.11
2018-08-07T03:08:26.032Z,24.01
2018-08-07T03:10:53.709Z,23.96
2018-08-07T03:13:21.663Z,23.97
2018-08-07T03:15:49.393Z,24.00
2018-08-07T03:18:17.017Z,23.92
2018-08-07T03:20:44.663Z,24.01
2018-08-07T03:23:12.646Z,23.97
2018-08-07T03:25:40.301Z,23.89
2018-08-07T03:28:07.952Z,23.85
2018-08-07T03:30:35.831Z,23.85
2018-08-07T03:33:03.793Z,23.85
2018-08-07T03:35:31.440Z,23.81
2018-08-07T03:37:59.125Z,23.88
2018-08-07T03:40:27.305Z,23.96
2018-08-07T03:42:54.952Z,24.00
2018-08-07T03:45:23.124Z,23.91
2018-08-07T03:47:50.734Z,23.81
2018-08-07T03:50:18.696Z,23.74
2018-08-07T03:52:46.367Z,23.75
2018-08-07T03:55:16.638Z,23.77
2018-08-07T03:57:44.985Z,23.77
2018-08-07T04:00:15.807Z,23.71
2018-08-07T04:02:43.768Z,23.64
2018-08-07T04:05:11.745Z,23.66
2018-08-07T04:07:39.704Z,23.80
2018-08-07T04:10:09.513Z,23.89
2018-08-07T04:12:37.177Z,23.98
2018-08-07T04:15:06.674Z,24.03
2018-08-07T04:17:34.560Z,24.08
2018-08-07T04:20:02.563Z,24.09
2018-08-07T04:22:30.461Z,24.09
2018-08-07T04:24:58.076Z,24.10
2018-08-07T04:27:25.734Z,24.16
2018-08-07T04:29:53.425Z,24.18
2018-08-07T04:32:21.333Z,23.95
2018-08-07T04:34:48.964Z,24.18
2018-08-07T04:37:16.600Z,24.14
2018-08-07T04:39:44.631Z,24.10
2018-08-07T04:42:12.538Z,24.04
2018-08-07T04:44:41.128Z,24.09
2018-08-07T04:47:08.848Z,24.09
2018-08-07T04:49:36.738Z,24.02
2018-08-07T04:52:04.798Z,24.07
2018-08-07T04:54:32.444Z,24.04
2018-08-07T04:57:00.155Z,24.05
2018-08-07T04:59:28.026Z,24.09
2018-08-07T05:01:55.665Z,24.14
2018-08-07T05:04:23.377Z,24.22
2018-08-07T05:06:51.316Z,24.23
2018-08-07T05:09:19.021Z,24.29
2018-08-07T05:11:46.695Z,24.30
2018-08-07T05:14:14.400Z,24.29
2018-08-07T05:16:42.045Z,24.28
2018-08-07T05:19:09.709Z,24.28
2018-08-07T05:21:37.385Z,24.38
2018-08-07T05:24:05.076Z,24.40
2018-08-07T05:26:32.730Z,24.41
2018-08-07T05:29:00.661Z,24.46
2018-08-07T05:31:28.513Z,24.49
2018-08-07T05:33:56.490Z,24.47
2018-08-07T05:36:24.137Z,24.54
2018-08-07T05:38:51.799Z,24.57
2018-08-07T05:41:20.074Z,24.63
2018-08-07T05:43:47.901Z,24.71
2018-08-07T05:46:15.536Z,24.79
2018-08-07T05:48:43.197Z,24.82
2018-08-07T05:51:11.277Z,24.84
2018-08-07T05:53:38.556Z,24.93
2018-08-07T05:56:06.236Z,25.00
2018-08-07T05:58:33.933Z,25.05
2018-08-07T06:01:01.536Z,25.08
2018-08-07T06:03:29.326Z,25.15
2018-08-07T06:05:57.230Z,25.17
2018-08-07T06:08:25.236Z,25.21
2018-08-07T06:10:52.921Z,25.22
2018-08-07T06:13:21.081Z,25.22
2018-08-07T06:15:48.775Z,25.24
2018-08-07T06:18:16.663Z,25.36
2018-08-07T06:20:44.660Z,25.36
2018-08-07T06:23:12.301Z,25.43
2018-08-07T06:25:40.076Z,25.49
2018-08-07T06:28:07.977Z,25.55
2018-08-07T06:30:35.661Z,25.53
2018-08-07T06:33:03.485Z,25.54
2018-08-07T06:35:31.439Z,25.51
2018-08-07T06:37:59.486Z,25.53
2018-08-07T06:40:27.746Z,25.52
2018-08-07T06:42:55.529Z,25.55
2018-08-07T06:45:23.220Z,25.59
2018-08-07T06:47:50.866Z,25.61
2018-08-07T06:50:20.325Z,25.66
2018-08-07T06:52:48.613Z,25.70
2018-08-07T06:55:16.351Z,25.77
2018-08-07T06:57:44.197Z,25.78
2018-08-07T07:00:16.208Z,25.85
2018-08-07T07:02:44.570Z,25.89
2018-08-07T07:05:12.383Z,25.95
2018-08-07T07:07:40.360Z,26.00
2018-08-07T07:10:09.605Z,26.06
2018-08-07T07:12:37.262Z,26.07
2018-08-07T07:15:06.033Z,26.09
2018-08-07T07:17:34.008Z,26.10
2018-08-07T07:20:01.684Z,26.12
2018-08-07T07:22:29.892Z,26.15
2018-08-07T07:24:57.530Z,26.18
2018-08-07T07:27:25.475Z,26.23
2018-08-07T07:29:53.157Z,26.26
2018-08-07T07:32:21.014Z,26.29
2018-08-07T07:34:48.692Z,26.30
2018-08-07T07:37:16.600Z,26.32
2018-08-07T07:39:44.594Z,26.34
2018-08-07T07:42:12.279Z,26.39
2018-08-07T07:44:39.934Z,26.39
2018-08-07T07:47:07.676Z,26.41
2018-08-07T07:49:35.317Z,26.46
2018-08-07T07:52:03.275Z,26.50
2018-08-07T07:54:31.173Z,26.54
2018-08-07T07:56:58.867Z,26.58
2018-08-07T07:59:26.788Z,26.61
2018-08-07T08:01:54.450Z,26.65
2018-08-07T08:04:22.433Z,26.67
2018-08-07T08:06:50.200Z,26.69
2018-08-07T08:09:17.883Z,26.69
2018-08-07T08:11:45.792Z,26.73
2018-08-07T08:14:13.906Z,26.76
2018-08-07T08:16:41.849Z,26.79
2018-08-07T08:19:09.919Z,26.82
2018-08-07T08:21:37.846Z,26.84
2018-08-07T08:24:05.746Z,26.88
2018-08-07T08:26:33.436Z,26.90
2018-08-07T08:29:02.026Z,26.94
2018-08-07T08:31:29.887Z,26.98
2018-08-07T08:33:57.517Z,27.00
2018-08-07T08:36:25.492Z,27.03
2018-08-07T08:38:53.179Z,27.04
2018-08-07T08:41:21.428Z,27.07
2018-08-07T08:43:49.349Z,27.09
2018-08-07T08:46:17.052Z,27.12
2018-08-07T08:48:44.689Z,27.15
2018-08-07T08:51:12.310Z,27.18
2018-08-07T08:53:40.694Z,27.18
2018-08-07T08:56:08.628Z,27.21
2018-08-07T08:58:36.486Z,27.24
2018-08-07T09:01:04.225Z,27.25
2018-08-07T09:03:32.131Z,27.29
2018-08-07T09:05:59.864Z,27.31
2018-08-07T09:08:27.590Z,27.34
2018-08-07T09:10:55.233Z,27.37
2018-08-07T09:13:22.898Z,27.39
2018-08-07T09:15:50.564Z,27.41
2018-08-07T09:18:18.526Z,27.45
2018-08-07T09:20:46.509Z,27.48
2018-08-07T09:23:14.214Z,27.49
2018-08-07T09:25:41.952Z,27.52
2018-08-07T09:28:09.586Z,27.55
2018-08-07T09:30:37.323Z,27.59
2018-08-07T09:33:05.747Z,27.61
2018-08-07T09:35:33.371Z,27.64
2018-08-07T09:38:01.050Z,27.66
2018-08-07T09:40:28.828Z,27.69
2018-08-07T09:42:57.094Z,27.70
2018-08-07T09:45:31.440Z,27.73
2018-08-07T09:47:59.594Z,27.77
2018-08-07T09:50:27.479Z,27.80
2018-08-07T09:52:55.095Z,27.84
2018-08-07T09:55:23.023Z,27.87
2018-08-07T09:57:50.704Z,27.90
2018-08-07T10:00:24.955Z,27.94
2018-08-07T10:02:56.233Z,27.97
2018-08-07T10:05:25.794Z,28.00
2018-08-07T10:07:53.682Z,28.02
2018-08-07T10:10:21.661Z,28.05
2018-08-07T10:12:49.405Z,28.09
2018-08-07T10:15:17.744Z,28.11
2018-08-07T10:17:45.571Z,28.14
2018-08-07T10:20:13.911Z,28.18
2018-08-07T10:22:42.001Z,28.21
2018-08-07T10:25:11.853Z,28.24
2018-08-07T10:27:41.192Z,28.29
2018-08-07T10:30:11.474Z,28.32
2018-08-07T10:32:40.372Z,28.37
2018-08-07T10:35:08.977Z,28.43
2018-08-07T10:37:37.116Z,28.48
2018-08-07T10:40:06.776Z,28.49
2018-08-07T10:42:34.957Z,28.52
2018-08-07T10:45:02.836Z,28.57
2018-08-07T10:47:30.561Z,28.62
2018-08-07T10:49:58.481Z,28.63
2018-08-07T10:52:26.492Z,28.64
2018-08-07T10:54:54.512Z,28.68
2018-08-07T10:57:22.554Z,28.72
2018-08-07T10:59:50.436Z,28.76
2018-08-07T11:02:18.720Z,28.81
2018-08-07T11:04:46.537Z,28.85
2018-08-07T11:07:14.589Z,28.90
2018-08-07T11:09:42.405Z,28.93
2018-08-07T11:12:10.455Z,28.98
2018-08-07T11:14:38.534Z,29.02
2018-08-07T11:17:06.356Z,29.06
2018-08-07T11:19:34.133Z,29.10
2018-08-07T11:22:02.786Z,29.14
2018-08-07T11:24:30.811Z,29.20
2018-08-07T11:26:58.644Z,29.23
2018-08-07T11:29:26.493Z,29.27
2018-08-07T11:31:54.466Z,29.29
2018-08-07T11:34:23.012Z,29.32
2018-08-07T11:36:50.789Z,29.31
2018-08-07T11:39:18.825Z,29.36
2018-08-07T11:41:46.433Z,29.41
2018-08-07T11:44:14.203Z,29.45
2018-08-07T11:46:42.243Z,29.46
2018-08-07T11:49:09.972Z,29.43
2018-08-07T11:51:38.050Z,29.42
2018-08-07T11:54:06.163Z,29.43
2018-08-07T11:56:33.940Z,29.42
2018-08-07T11:59:02.324Z,29.42
2018-08-07T12:01:30.030Z,29.48
2018-08-07T12:03:58.130Z,29.55
2018-08-07T12:06:25.842Z,29.61
2018-08-07T12:08:53.857Z,29.66
2018-08-07T12:11:21.895Z,29.71
2018-08-07T12:13:49.597Z,29.76
2018-08-07T12:16:17.438Z,29.81
2018-08-07T12:18:45.201Z,29.87
2018-08-07T12:21:13.045Z,29.92
2018-08-07T12:23:41.021Z,29.98
2018-08-07T12:26:08.940Z,30.06
2018-08-07T12:28:36.649Z,30.11
2018-08-07T12:31:04.295Z,30.18
2018-08-07T12:33:32.028Z,30.24
2018-08-07T12:35:59.900Z,30.30
2018-08-07T12:38:27.751Z,30.35
2018-08-07T12:40:55.719Z,30.36
2018-08-07T12:43:23.435Z,30.38
2018-08-07T12:45:51.102Z,30.38
2018-08-07T12:48:19.237Z,30.40
2018-08-07T12:50:47.538Z,30.42
2018-08-07T12:53:15.345Z,30.43
2018-08-07T12:55:43.093Z,30.45
2018-08-07T12:58:11.053Z,30.48
2018-08-07T13:00:38.708Z,30.48
2018-08-07T13:03:06.760Z,30.51
2018-08-07T13:05:34.777Z,30.53
2018-08-07T13:08:02.486Z,30.56
2018-08-07T13:10:30.137Z,30.58
2018-08-07T13:12:57.871Z,30.62
2018-08-07T13:15:25.658Z,30.66
2018-08-07T13:17:53.300Z,30.70
2018-08-07T13:20:20.939Z,30.72
2018-08-07T13:22:49.345Z,30.74
2018-08-07T13:25:19.248Z,30.77
2018-08-07T13:27:48.121Z,30.81
2018-08-07T13:30:19.114Z,30.84
2018-08-07T13:32:47.119Z,30.87
2018-08-07T13:35:15.323Z,30.90
2018-08-07T13:37:44.701Z,30.91
2018-08-07T13:40:14.412Z,30.93
2018-08-07T13:42:42.165Z,30.96
2018-08-07T13:45:15.334Z,31.01
2018-08-07T13:47:43.141Z,31.06
2018-08-07T13:50:13.824Z,31.08
2018-08-07T13:52:42.081Z,31.12
2018-08-07T13:55:10.552Z,31.17
2018-08-07T13:57:38.348Z,31.21
2018-08-07T14:00:14.576Z,31.25
2018-08-07T14:02:42.836Z,31.29
2018-08-07T14:05:10.486Z,31.33
2018-08-07T14:07:38.188Z,31.37
2018-08-07T14:10:06.908Z,31.40
2018-08-07T14:12:34.608Z,31.43
2018-08-07T14:15:03.006Z,31.47
2018-08-07T14:17:30.670Z,31.53
2018-08-07T14:19:58.307Z,31.51
2018-08-07T14:22:26.012Z,31.69
2018-08-07T14:24:53.798Z,31.82
2018-08-07T14:27:21.553Z,31.92
2018-08-07T14:29:49.238Z,32.33
2018-08-07T14:32:16.990Z,33.38
2018-08-07T14:34:44.669Z,34.68
2018-08-07T14:37:12.305Z,35.48
2018-08-07T14:39:39.997Z,36.02
2018-08-07T14:42:07.675Z,36.37
2018-08-07T14:44:35.388Z,36.56
2018-08-07T14:47:03.792Z,36.73
2018-08-07T14:49:32.707Z,36.89
2018-08-07T14:52:00.437Z,37.03
2018-08-07T14:54:28.143Z,37.13
2018-08-07T14:56:55.841Z,37.26
2018-08-07T14:59:23.631Z,37.33
2018-08-07T15:01:51.527Z,37.35
2018-08-07T15:04:19.481Z,36.70
2018-08-07T15:06:47.193Z,35.67
2018-08-07T15:09:14.878Z,34.43
2018-08-07T15:11:42.609Z,33.87
2018-08-07T15:14:10.929Z,33.44
2018-08-07T15:16:39.056Z,33.18
2018-08-07T15:19:06.755Z,33.01
2018-08-07T15:21:34.573Z,32.89
2018-08-07T15:24:02.533Z,32.82
2018-08-07T15:26:30.535Z,32.87
2018-08-07T15:28:58.266Z,32.88
2018-08-07T15:31:25.901Z,32.78
2018-08-07T15:33:53.913Z,32.85
2018-08-07T15:36:22.086Z,32.97
2018-08-07T15:38:50.061Z,32.87
2018-08-07T15:41:17.786Z,32.79
2018-08-07T15:43:45.607Z,32.72
2018-08-07T15:46:13.440Z,32.79
2018-08-07T15:48:42.561Z,32.69
2018-08-07T15:51:10.249Z,32.67
2018-08-07T15:53:38.025Z,32.55
2018-08-07T15:56:05.677Z,32.47
2018-08-07T15:58:33.490Z,32.43
2018-08-07T16:01:01.524Z,32.41
2018-08-07T16:03:29.222Z,32.39
2018-08-07T16:05:57.325Z,32.39
2018-08-07T16:08:25.013Z,32.38
2018-08-07T16:10:52.680Z,32.37
2018-08-07T16:13:20.416Z,32.37
2018-08-07T16:15:48.092Z,32.36
2018-08-07T16:18:15.823Z,32.37
2018-08-07T16:20:43.779Z,32.34
2018-08-07T16:23:12.161Z,32.32
2018-08-07T16:25:40.377Z,32.32
2018-08-07T16:28:08.273Z,32.32
2018-08-07T16:30:36.066Z,32.32
2018-08-07T16:33:04.052Z,32.32
2018-08-07T16:35:32.090Z,32.32
2018-08-07T16:37:59.808Z,32.30
2018-08-07T16:40:28.002Z,32.30
2018-08-07T16:42:55.700Z,32.30
2018-08-07T16:45:24.235Z,32.29
2018-08-07T16:47:52.374Z,32.29
2018-08-07T16:50:25.039Z,32.28
2018-08-07T16:52:53.632Z,32.27
2018-08-07T16:55:22.413Z,32.28
2018-08-07T16:57:50.621Z,32.28
2018-08-07T17:00:18.346Z,32.30
2018-08-07T17:02:46.110Z,32.34
2018-08-07T17:05:14.888Z,32.37
2018-08-07T17:07:43.108Z,32.37
2018-08-07T17:10:13.564Z,32.38
2018-08-07T17:12:41.296Z,32.37
2018-08-07T17:15:10.453Z,32.38
2018-08-07T17:17:39.829Z,32.45
2018-08-07T17:20:08.912Z,32.50
2018-08-07T17:22:37.721Z,32.50
2018-08-07T17:25:06.009Z,32.56
2018-08-07T17:27:34.001Z,32.60
2018-08-07T17:30:01.658Z,32.69
2018-08-07T17:32:30.038Z,32.80
2018-08-07T17:34:58.409Z,32.88
2018-08-07T17:37:26.522Z,32.91
2018-08-07T17:39:54.921Z,32.94
2018-08-07T17:42:23.026Z,32.89
2018-08-07T17:44:51.332Z,32.89
2018-08-07T17:47:19.705Z,33.15
2018-08-07T17:49:53.957Z,33.33
2018-08-07T17:52:24.770Z,33.45
2018-08-07T17:54:52.842Z,33.47
2018-08-07T17:57:21.300Z,33.48
2018-08-07T17:59:49.540Z,33.51
2018-08-07T18:02:17.276Z,33.52
2018-08-07T18:04:45.540Z,33.51
2018-08-07T18:07:13.844Z,33.51
2018-08-07T18:09:42.136Z,33.49
2018-08-07T18:12:10.527Z,33.42
2018-08-07T18:14:38.795Z,33.34
2018-08-07T18:17:07.317Z,33.28
2018-08-07T18:19:35.881Z,33.21
2018-08-07T18:22:04.068Z,33.13
2018-08-07T18:24:32.000Z,33.01
2018-08-07T18:26:59.766Z,32.95
2018-08-07T18:29:28.140Z,32.89
2018-08-07T18:31:56.605Z,32.82
2018-08-07T18:34:24.942Z,32.73
2018-08-07T18:36:53.373Z,32.63
2018-08-07T18:39:21.886Z,32.51
2018-08-07T18:41:50.251Z,32.39
2018-08-07T18:44:18.700Z,32.24
2018-08-07T18:46:47.106Z,32.09
2018-08-07T18:49:14.783Z,31.97
2018-08-07T18:51:43.000Z,31.89
2018-08-07T18:54:11.250Z,31.82
2018-08-07T18:56:39.456Z,31.74
2018-08-07T18:59:07.760Z,31.65
2018-08-07T19:01:36.280Z,31.59
2018-08-07T19:04:04.235Z,31.54
2018-08-07T19:06:32.487Z,31.49
2018-08-07T19:09:00.858Z,31.42
2018-08-07T19:11:28.565Z,31.35
2018-08-07T19:13:56.465Z,31.32
2018-08-07T19:16:24.638Z,31.27
2018-08-07T19:18:52.500Z,31.24
2018-08-07T19:21:20.175Z,31.19
2018-08-07T19:23:48.130Z,31.11
2018-08-07T19:26:15.806Z,31.09
2018-08-07T19:28:43.612Z,31.04
2018-08-07T19:31:11.276Z,30.99
2018-08-07T19:33:39.272Z,30.93
2018-08-07T19:36:07.514Z,30.89
2018-08-07T19:38:35.441Z,30.83
2018-08-07T19:41:03.684Z,30.80
2018-08-07T19:43:31.713Z,30.71
2018-08-07T19:45:59.745Z,30.63
2018-08-07T19:48:27.986Z,30.56
2018-08-07T19:50:55.653Z,30.55
2018-08-07T19:53:23.957Z,30.53
2018-08-07T19:55:52.195Z,30.52
2018-08-07T19:58:19.796Z,30.51
2018-08-07T20:00:47.501Z,30.45
2018-08-07T20:03:15.277Z,30.45
2018-08-07T20:05:43.225Z,30.42
2018-08-07T20:08:10.897Z,30.41
2018-08-07T20:10:38.903Z,30.34
2018-08-07T20:13:06.577Z,30.29
2018-08-07T20:15:34.519Z,30.25
2018-08-07T20:18:02.255Z,30.21
2018-08-07T20:20:30.030Z,30.21
2018-08-07T20:22:57.688Z,30.16
2018-08-07T20:25:25.463Z,30.11
2018-08-07T20:27:53.116Z,30.06
2018-08-07T20:30:22.081Z,30.03
2018-08-07T20:32:51.060Z,30.00
2018-08-07T20:35:19.007Z,29.92
2018-08-07T20:37:46.635Z,29.90
2018-08-07T20:40:19.269Z,29.82
2018-08-07T20:42:46.963Z,29.76
2018-08-07T20:45:15.513Z,29.70
2018-08-07T20:47:43.403Z,29.64
2018-08-07T20:50:16.463Z,29.64
2018-08-07T20:52:44.661Z,29.62
2018-08-07T20:55:12.790Z,29.61
2018-08-07T20:57:40.464Z,29.57
2018-08-07T21:00:13.598Z,29.54
2018-08-07T21:02:41.303Z,29.49
2018-08-07T21:05:09.042Z,29.48
2018-08-07T21:07:37.073Z,29.45
2018-08-07T21:10:05.980Z,29.44
2018-08-07T21:12:33.696Z,29.40
2018-08-07T21:15:01.411Z,29.36
2018-08-07T21:17:29.268Z,29.29
2018-08-07T21:19:57.341Z,29.24
2018-08-07T21:22:24.986Z,29.21
2018-08-07T21:24:52.992Z,29.16
2018-08-07T21:27:20.638Z,29.16
2018-08-07T21:29:48.313Z,29.17
2018-08-07T21:32:16.257Z,29.20
2018-08-07T21:34:44.554Z,29.20
2018-08-07T21:37:12.309Z,29.15
2018-08-07T21:39:39.960Z,29.15
2018-08-07T21:42:07.715Z,29.11
2018-08-07T21:44:35.346Z,29.10
2018-08-07T21:47:03.004Z,29.08
2018-08-07T21:49:30.948Z,29.08
2018-08-07T21:51:58.855Z,29.06
2018-08-07T21:54:26.734Z,29.04
2018-08-07T21:56:56.423Z,29.06
2018-08-07T21:59:24.032Z,29.05
2018-08-07T22:01:51.956Z,29.05
2018-08-07T22:04:20.028Z,28.94
2018-08-07T22:06:48.048Z,28.84
2018-08-07T22:09:15.698Z,28.83
2018-08-07T22:11:43.534Z,28.87
2018-08-07T22:14:11.436Z,28.83
2018-08-07T22:16:39.116Z,28.76
2018-08-07T22:19:06.993Z,28.75
2018-08-07T22:21:34.928Z,28.70
2018-08-07T22:24:02.989Z,28.70
2018-08-07T22:26:30.625Z,28.66
2018-08-07T22:28:58.285Z,28.61
2018-08-07T22:31:26.354Z,28.57
2018-08-07T22:33:54.273Z,28.63
2018-08-07T22:36:22.056Z,28.64
2018-08-07T22:38:49.688Z,28.56
2018-08-07T22:41:17.365Z,28.51
2018-08-07T22:43:45.318Z,28.48
2018-08-07T22:46:13.276Z,28.47
2018-08-07T22:48:40.905Z,28.40
2018-08-07T22:51:08.614Z,28.41
2018-08-07T22:53:36.281Z,28.44
2018-08-07T22:56:04.194Z,28.47
2018-08-07T22:58:31.848Z,28.49
2018-08-07T23:00:59.562Z,28.42
2018-08-07T23:03:27.714Z,28.33
2018-08-07T23:05:55.384Z,28.29
2018-08-07T23:08:23.367Z,28.21
2018-08-07T23:10:50.979Z,28.15
2018-08-07T23:13:18.607Z,28.10
2018-08-07T23:15:46.320Z,28.11
2018-08-07T23:18:13.994Z,28.10
2018-08-07T23:20:41.622Z,28.11
2018-08-07T23:23:09.726Z,28.13
2018-08-07T23:25:37.356Z,28.15
2018-08-07T23:28:04.981Z,28.12
2018-08-07T23:30:32.712Z,28.07
2018-08-07T23:33:00.319Z,28.09
2018-08-07T23:35:28.286Z,28.12
2018-08-07T23:37:55.972Z,28.07
2018-08-07T23:40:23.904Z,28.02
2018-08-07T23:42:51.751Z,27.93
2018-08-07T23:45:19.413Z,27.91
2018-08-07T23:47:47.404Z,28.00
2018-08-07T23:50:15.268Z,28.00
2018-08-07T23:52:43.265Z,27.91
2018-08-07T23:55:11.202Z,27.92
2018-08-07T23:57:38.967Z,27.88
